Redwood City, CA (94064)

12:52 PM PDT del 30 Settembre 2014 (GMT -0700)
Sterling Heights | Change Station
CLOSE
Current Station
Stazione meteo personale
Location: Redwood City, CA
Altitudine: 134 ft
Stazioni meteo nelle vicinanze

Alt. 134 ft 37.46 °N, 122.25 °W | Updated 12 seconds ago

Parzialmente nuvoloso
Parzialmente nuvoloso
72.9 °F
Sembra 77 °F
N
0.9
Vento Variabile Vento da NNE
Gusts 7.0 mph

Oggi
Massima -- | Minima -- °F
--% Possibilità di precip.
Ieri
Massima -- | Minima -- °F
Precip. -- in
7:03 AM 6:53 PM
Luna crescente, 39% visible
Pressione 29.96 in
Visibilità 10.0 miglia
Nuvole Alcuni 2000 ft
Indice di calore 77 °F
Punto di rugiada 57 °F
Umidità 57%
Piovosità 0.01 in
Spessore del manto nevoso 0 in , 1 in , 1 in
Raggi UV 6 fuori da 12
Polline 2.80 fuori da 12
PM2.5 Buono
Flu Activity Non disponibile.
METAR KSQL 301847Z 29008KT 10SM FEW020 20/13 A2996

More Conditions Fewer Conditions

Pressione 29.96 in
Visibilità 10.0 miglia
Nuvole Alcuni 2000 ft
Indice di calore 77 °F
Punto di rugiada 57 °F
Umidità 57%
Piovosità 0.01 in
Spessore del manto nevoso 0 in , 1 in , 1 in
Raggi UV 6 fuori da 12
Polline 2.80 fuori da 12
PM2.5 Buono
Flu Activity Non disponibile.
METAR KSQL 301847Z 29008KT 10SM FEW020 20/13 A2996

More Conditions Fewer Conditions

10-Day Weather Forecast

Almanac

Astronomia

Sep. 30, 2014 Alba Tramonto
Ora attuale 07:03 PDT 18:53 PDT
Crepuscolo civile 06:37 PDT 19:19 PDT
Crepuscolo nautico 06:07 PDT 19:49 PDT
Crepuscolo astronomico 05:36 PDT 20:20 PDT
Luna 13:11 PDT 23:34 PDT
Estensione della luce visibile 12h 41m
Lunghezza del giorno
11h 49m
Tomorrow will be 2m 23s shorter.
Luna crescente, 39% of the Moon is Illuminated
Oggi
Luna crescente
Ott 1
Primo quarto
Ott 8
Luna piena
Ott 15
Ultimo quarto
Ott 23
Nuovo

Gli estremi di oggi

State Highs State Lows

Community

WunderPhotos

Upload Photos

1,757,731 foto caricate!

Nearby

Qualità dell'aria

  Qualità dell'aria Indice AQ Inquinante
Ieri Buono
PM2.5
Ieri Buono
OZONE
Attuale Buono
PM2.5
Martedì Buono
PM2.5
Mercoledì Buono
PM2.5
Giovedì Moderato
PM2.5
Venerdì Moderato
PM2.5
Sabato Moderato
PM2.5
Domenica Moderato
PM2.5

Profondità neve

Stazione Profondità Altitudine
Blue Lakes 0 in 8000 ft
Rubicon #2 1 in 7500 ft
Heavenly Valley 1 in 8850 ft
Summit Meadow 0 in 9122 ft
Leavitt Lake 0 in 9400 ft

Attività sismica

Città  Distanza Mag. Data & Ora
South Dos Palos, California 96 miglia 2.5 21:18 PDT
2014-09-29
American Canyon, California 49 miglia 2.5 00:17 PDT
2014-09-29
South Dos Palos, California 96 miglia 2.7 20:46 PDT
2014-09-28
South Dos Palos, California 97 miglia 4.4 13:45 PDT
2014-09-28
Minimo Magnitudo Mostrato è 2.5.

Temperature delle acque costiere

Località Temperatura
Nessun dato dalle stazioni

Stazioni meteo nelle vicinanze